createdAt,value
2023-03-18T00:01:42.432Z,10.63
2023-03-18T00:04:11.323Z,9.40
2023-03-18T00:06:40.444Z,9.35
2023-03-18T00:09:08.699Z,9.75
2023-03-18T00:11:37.584Z,8.85
2023-03-18T00:14:05.605Z,9.75
2023-03-18T00:16:35.089Z,9.27
2023-03-18T00:19:04.233Z,10.80
2023-03-18T00:21:32.231Z,9.15
2023-03-18T00:24:00.716Z,9.00
2023-03-18T00:26:29.897Z,9.02
2023-03-18T00:28:58.884Z,9.73
2023-03-18T00:31:28.908Z,13.98
2023-03-18T00:34:00.919Z,10.55
2023-03-18T00:36:30.451Z,10.07
2023-03-18T00:38:59.711Z,9.50
2023-03-18T00:41:28.585Z,8.55
2023-03-18T00:43:58.308Z,9.68
2023-03-18T00:46:28.563Z,10.80
2023-03-18T00:48:58.590Z,9.27
2023-03-18T00:51:29.352Z,9.45
2023-03-18T00:53:59.476Z,9.80
2023-03-18T00:56:30.855Z,9.45
2023-03-18T00:59:00.417Z,8.98
2023-03-18T01:01:29.299Z,9.70
2023-03-18T01:04:00.123Z,11.65
2023-03-18T01:06:34.278Z,10.60
2023-03-18T01:09:04.603Z,10.60
2023-03-18T01:11:33.323Z,10.32
2023-03-18T01:14:01.653Z,9.98
2023-03-18T01:16:30.214Z,10.40
2023-03-18T01:18:58.678Z,10.43
2023-03-18T01:21:26.712Z,9.82
2023-03-18T01:24:00.461Z,10.25
2023-03-18T01:26:29.362Z,9.00
2023-03-18T01:28:59.624Z,10.65
2023-03-18T01:31:29.867Z,9.63
2023-03-18T01:34:03.200Z,10.15
2023-03-18T01:36:40.791Z,10.65
2023-03-18T01:39:11.970Z,10.30
2023-03-18T01:41:40.794Z,10.77
2023-03-18T01:44:14.929Z,11.23
2023-03-18T01:46:45.949Z,9.60
2023-03-18T01:49:20.709Z,10.43
2023-03-18T01:51:55.013Z,10.55
2023-03-18T01:54:26.524Z,10.30
2023-03-18T01:56:55.595Z,12.50
2023-03-18T01:59:26.423Z,11.35
2023-03-18T02:01:58.201Z,13.75
2023-03-18T02:04:31.380Z,11.25
2023-03-18T02:07:01.326Z,12.18
2023-03-18T02:09:30.875Z,11.50
2023-03-18T02:12:02.063Z,11.02
2023-03-18T02:14:30.748Z,10.88
2023-03-18T02:17:02.701Z,10.30
2023-03-18T02:19:51.681Z,10.10
2023-03-18T02:22:27.909Z,11.23
2023-03-18T02:25:14.199Z,10.15
2023-03-18T02:27:46.287Z,10.82
2023-03-18T02:30:18.835Z,9.82
2023-03-18T02:32:51.930Z,10.50
2023-03-18T02:35:21.717Z,9.55
2023-03-18T02:37:51.353Z,10.95
2023-03-18T02:40:22.040Z,10.68
2023-03-18T02:42:52.341Z,10.27
2023-03-18T02:45:35.372Z,11.80
2023-03-18T02:48:17.880Z,11.18
2023-03-18T02:50:47.500Z,10.18
2023-03-18T02:53:16.262Z,10.48
2023-03-18T02:55:44.990Z,9.35
2023-03-18T02:58:14.321Z,9.50
2023-03-18T03:00:43.031Z,8.32
2023-03-18T03:03:11.155Z,8.80
2023-03-18T03:05:39.326Z,8.88
2023-03-18T03:08:08.006Z,9.63
2023-03-18T03:10:40.009Z,9.27
2023-03-18T03:13:09.728Z,10.00
2023-03-18T03:15:40.121Z,10.20
2023-03-18T03:18:08.658Z,9.63
2023-03-18T03:20:39.066Z,10.32
2023-03-18T03:23:08.520Z,12.05
2023-03-18T03:25:36.837Z,10.57
2023-03-18T03:28:05.552Z,11.63
2023-03-18T03:30:34.602Z,12.00
2023-03-18T03:33:04.094Z,11.57
2023-03-18T03:35:32.822Z,10.85
2023-03-18T03:38:01.090Z,11.73
2023-03-18T03:40:29.560Z,10.18
2023-03-18T03:42:57.838Z,11.27
2023-03-18T03:45:25.931Z,11.68
2023-03-18T03:47:55.811Z,11.73
2023-03-18T03:50:25.546Z,12.02
2023-03-18T03:52:54.214Z,11.70
2023-03-18T03:55:23.730Z,10.35
2023-03-18T03:57:54.002Z,9.98
2023-03-18T04:00:23.509Z,10.48
2023-03-18T04:02:53.188Z,10.52
2023-03-18T04:05:25.814Z,10.32
2023-03-18T04:07:55.335Z,9.68
2023-03-18T04:10:36.513Z,10.10
2023-03-18T04:13:07.166Z,11.43
2023-03-18T04:15:35.668Z,11.80
2023-03-18T04:18:09.255Z,10.93
2023-03-18T04:20:40.583Z,10.75
2023-03-18T04:23:33.127Z,11.88
2023-03-18T04:26:01.612Z,11.10
2023-03-18T04:28:30.091Z,10.57
2023-03-18T04:30:58.337Z,10.40
2023-03-18T04:33:26.607Z,9.90
2023-03-18T04:35:55.927Z,10.63
2023-03-18T04:38:24.525Z,10.10
2023-03-18T04:40:54.059Z,9.50
2023-03-18T04:43:22.297Z,10.13
2023-03-18T04:45:51.800Z,10.40
2023-03-18T04:48:20.558Z,9.63
2023-03-18T04:50:48.693Z,8.63
2023-03-18T04:53:24.506Z,10.00
2023-03-18T04:55:54.015Z,10.48
2023-03-18T04:58:27.565Z,9.35
2023-03-18T05:01:24.517Z,9.20
2023-03-18T05:03:53.267Z,9.75
2023-03-18T05:06:26.790Z,9.20
2023-03-18T05:08:59.056Z,9.57
2023-03-18T05:11:30.317Z,9.73
2023-03-18T05:14:02.042Z,8.98
2023-03-18T05:16:36.935Z,9.02
2023-03-18T05:19:05.796Z,8.55
2023-03-18T05:21:34.611Z,9.65
2023-03-18T05:24:04.680Z,8.93
2023-03-18T05:26:39.798Z,9.00
2023-03-18T05:29:09.917Z,9.45
2023-03-18T05:31:44.603Z,9.85
2023-03-18T05:34:13.477Z,9.93
2023-03-18T05:36:44.098Z,8.80
2023-03-18T05:39:13.386Z,9.10
2023-03-18T05:41:41.782Z,8.85
2023-03-18T05:44:13.209Z,9.15
2023-03-18T05:46:42.801Z,9.45
2023-03-18T05:49:31.294Z,8.60
2023-03-18T05:52:19.471Z,8.45
2023-03-18T05:54:51.078Z,9.35
2023-03-18T05:57:26.347Z,9.68
2023-03-18T06:00:01.052Z,8.77
2023-03-18T06:02:33.390Z,10.40
2023-03-18T06:05:01.547Z,8.85
2023-03-18T06:07:30.506Z,9.98
2023-03-18T06:09:59.800Z,9.27
2023-03-18T06:12:28.597Z,8.65
2023-03-18T06:14:56.567Z,10.63
2023-03-18T06:17:24.565Z,8.80
2023-03-18T06:19:52.584Z,9.25
2023-03-18T06:22:20.559Z,9.63
2023-03-18T06:24:48.992Z,9.20
2023-03-18T06:27:20.686Z,9.60
2023-03-18T06:29:54.963Z,8.85
2023-03-18T06:32:23.693Z,9.15
2023-03-18T06:34:52.504Z,9.50
2023-03-18T06:37:21.683Z,9.55
2023-03-18T06:39:50.885Z,9.40
2023-03-18T06:42:20.565Z,9.85
2023-03-18T06:45:12.182Z,9.57
2023-03-18T06:47:48.001Z,9.15
2023-03-18T06:50:16.553Z,8.88
2023-03-18T06:52:45.798Z,9.90
2023-03-18T06:55:17.421Z,8.60
2023-03-18T06:57:48.425Z,9.05
2023-03-18T07:00:21.788Z,9.07
2023-03-18T07:02:49.858Z,8.20
2023-03-18T07:05:20.580Z,8.77
2023-03-18T07:07:49.458Z,8.80
2023-03-18T07:10:21.703Z,8.75
2023-03-18T07:12:52.326Z,9.30
2023-03-18T07:15:21.710Z,8.80
2023-03-18T07:17:52.378Z,8.35
2023-03-18T07:20:22.236Z,8.38
2023-03-18T07:22:51.715Z,8.70
2023-03-18T07:25:22.839Z,8.55
2023-03-18T07:27:53.261Z,8.43
2023-03-18T07:30:21.797Z,8.13
2023-03-18T07:32:50.847Z,9.05
2023-03-18T07:35:19.143Z,8.67
2023-03-18T07:37:47.266Z,8.10
2023-03-18T07:40:16.815Z,8.90
2023-03-18T07:42:44.826Z,8.63
2023-03-18T07:45:15.232Z,9.27
2023-03-18T07:47:44.248Z,8.83
2023-03-18T07:50:13.593Z,9.03
2023-03-18T07:52:41.885Z,8.10
2023-03-18T07:55:10.676Z,7.87
2023-03-18T07:57:38.992Z,8.10
2023-03-18T08:00:10.422Z,8.47
2023-03-18T08:02:42.994Z,7.83
2023-03-18T08:05:11.711Z,8.80
2023-03-18T08:07:39.779Z,8.83
2023-03-18T08:10:09.982Z,9.00
2023-03-18T08:12:51.668Z,9.70
2023-03-18T08:15:20.402Z,9.10
2023-03-18T08:17:49.885Z,8.63
2023-03-18T08:20:18.144Z,8.50
2023-03-18T08:22:46.808Z,8.63
2023-03-18T08:25:15.818Z,8.60
2023-03-18T08:27:43.780Z,9.57
2023-03-18T08:30:13.671Z,8.57
2023-03-18T08:32:41.992Z,8.80
2023-03-18T08:35:12.746Z,9.53
2023-03-18T08:37:41.041Z,9.20
2023-03-18T08:40:10.685Z,9.30
2023-03-18T08:42:38.636Z,9.20
2023-03-18T08:45:07.939Z,9.50
2023-03-18T08:47:37.999Z,9.00
2023-03-18T08:50:07.106Z,8.07
2023-03-18T08:52:38.567Z,8.60
2023-03-18T08:55:08.196Z,8.57
2023-03-18T08:57:37.346Z,8.60
2023-03-18T09:00:05.798Z,8.30
2023-03-18T09:02:34.656Z,8.47
2023-03-18T09:05:02.774Z,9.30
2023-03-18T09:07:30.886Z,9.13
2023-03-18T09:10:00.209Z,8.97
2023-03-18T09:12:28.680Z,10.03
2023-03-18T09:14:57.468Z,8.13
2023-03-18T09:17:40.328Z,8.80
2023-03-18T09:20:16.815Z,8.97
2023-03-18T09:22:46.789Z,9.63
2023-03-18T09:25:25.726Z,9.43
2023-03-18T09:27:54.880Z,8.77
2023-03-18T09:30:23.217Z,9.70
2023-03-18T09:32:51.326Z,10.40
2023-03-18T09:35:19.587Z,9.47
2023-03-18T09:37:47.603Z,9.50
2023-03-18T09:40:23.181Z,9.70
2023-03-18T09:43:02.499Z,9.67
2023-03-18T09:45:35.922Z,10.20
2023-03-18T09:48:21.186Z,10.10
2023-03-18T09:51:01.212Z,10.13
2023-03-18T09:53:37.791Z,10.67
2023-03-18T09:56:11.782Z,10.10
2023-03-18T09:58:48.780Z,10.33
2023-03-18T10:01:18.872Z,10.73
2023-03-18T10:03:52.395Z,10.40
2023-03-18T10:06:23.100Z,9.73
2023-03-18T10:08:59.424Z,10.20
2023-03-18T10:11:33.240Z,9.73
2023-03-18T10:14:23.202Z,10.73
2023-03-18T10:17:01.324Z,10.17
2023-03-18T10:19:30.111Z,10.13
2023-03-18T10:22:13.692Z,9.50
2023-03-18T10:24:48.968Z,10.13
2023-03-18T10:27:22.416Z,10.20
2023-03-18T10:29:59.239Z,9.43
2023-03-18T10:32:49.009Z,9.80
2023-03-18T10:35:27.772Z,9.63
2023-03-18T10:38:02.253Z,10.43
2023-03-18T10:40:36.468Z,10.23
2023-03-18T10:43:15.814Z,10.00
2023-03-18T10:45:45.742Z,10.97
2023-03-18T10:48:19.005Z,11.23
2023-03-18T10:50:53.593Z,10.73
2023-03-18T10:53:28.062Z,10.30
2023-03-18T10:56:01.863Z,10.53
2023-03-18T10:58:32.156Z,11.60
2023-03-18T11:01:00.631Z,11.90
2023-03-18T11:03:32.160Z,11.37
2023-03-18T11:06:04.719Z,12.37
2023-03-18T11:08:35.592Z,11.77
2023-03-18T11:11:18.000Z,11.90
2023-03-18T11:13:52.919Z,12.20
2023-03-18T11:16:30.549Z,11.93
2023-03-18T11:18:59.606Z,11.67
2023-03-18T11:21:29.753Z,11.63
2023-03-18T11:24:10.222Z,11.37
2023-03-18T11:26:53.573Z,13.40
2023-03-18T11:29:27.074Z,11.30
2023-03-18T11:31:58.295Z,12.00
2023-03-18T11:34:27.168Z,13.33
2023-03-18T11:36:59.101Z,16.43
2023-03-18T11:39:28.745Z,13.43
2023-03-18T11:41:57.259Z,12.10
2023-03-18T11:44:31.982Z,12.90
2023-03-18T11:47:05.092Z,13.87
2023-03-18T11:49:33.419Z,11.90
2023-03-18T11:52:22.341Z,13.90
2023-03-18T11:55:10.853Z,13.70
2023-03-18T11:57:52.386Z,12.80
2023-03-18T12:00:30.041Z,14.17
2023-03-18T12:03:21.668Z,13.80
2023-03-18T12:06:03.895Z,15.90
2023-03-18T12:08:45.069Z,14.60
2023-03-18T12:11:20.302Z,16.00
2023-03-18T12:13:57.206Z,15.20
2023-03-18T12:16:42.016Z,14.60
2023-03-18T12:19:34.153Z,14.43
2023-03-18T12:22:17.575Z,13.10
2023-03-18T12:25:14.251Z,13.40
2023-03-18T12:27:50.771Z,12.40
2023-03-18T12:30:40.952Z,12.83
2023-03-18T12:33:25.231Z,14.17
2023-03-18T12:36:02.239Z,14.87
2023-03-18T12:38:56.327Z,13.50
2023-03-18T12:41:32.159Z,13.00
2023-03-18T12:44:13.556Z,13.23
2023-03-18T12:46:47.580Z,15.20
2023-03-18T12:49:22.321Z,13.23
2023-03-18T12:51:57.096Z,14.53
2023-03-18T12:54:28.550Z,13.57
2023-03-18T12:57:03.497Z,12.43
2023-03-18T12:59:37.461Z,11.53
2023-03-18T13:02:23.039Z,12.70
2023-03-18T13:04:57.864Z,11.80
2023-03-18T13:07:34.022Z,11.97
2023-03-18T13:10:07.426Z,11.97
2023-03-18T13:12:39.699Z,13.33
2023-03-18T13:15:17.290Z,13.03
2023-03-18T13:17:47.712Z,14.33
2023-03-18T13:20:22.000Z,13.93
2023-03-18T13:23:10.237Z,14.27
2023-03-18T13:25:42.205Z,13.83
2023-03-18T13:28:31.437Z,13.87
2023-03-18T13:31:10.578Z,13.60
2023-03-18T13:33:55.739Z,12.20
2023-03-18T13:36:56.286Z,13.60
2023-03-18T13:39:36.639Z,13.17
2023-03-18T13:42:23.992Z,11.60
2023-03-18T13:45:04.751Z,11.10
2023-03-18T13:47:35.732Z,11.20
2023-03-18T13:50:06.934Z,11.00
2023-03-18T13:52:42.012Z,12.30
2023-03-18T13:55:23.543Z,12.03
2023-03-18T13:57:58.095Z,12.30
2023-03-18T14:00:31.607Z,12.03
2023-03-18T14:03:16.079Z,13.43
2023-03-18T14:05:45.627Z,11.40
2023-03-18T14:08:44.583Z,11.97
2023-03-18T14:11:38.955Z,12.10
2023-03-18T14:14:07.185Z,12.43
2023-03-18T14:16:53.962Z,11.27
2023-03-18T14:19:28.560Z,11.70
2023-03-18T14:22:09.967Z,12.13
2023-03-18T14:24:39.647Z,10.60
2023-03-18T14:27:18.207Z,10.90
2023-03-18T14:29:48.455Z,11.23
2023-03-18T14:32:39.719Z,12.40
2023-03-18T14:35:28.248Z,11.07
2023-03-18T14:38:02.619Z,12.33
2023-03-18T14:40:36.464Z,8.90
2023-03-18T14:43:11.531Z,9.40
2023-03-18T14:45:44.865Z,9.63
2023-03-18T14:48:19.768Z,10.37
2023-03-18T14:50:50.811Z,11.57
2023-03-18T14:53:22.715Z,10.60
2023-03-18T14:55:56.487Z,9.10
2023-03-18T14:58:26.243Z,8.80
2023-03-18T15:00:57.390Z,9.80
2023-03-18T15:03:28.657Z,7.70
2023-03-18T15:06:00.393Z,6.33
2023-03-18T15:08:44.834Z,6.60
2023-03-18T15:11:18.170Z,8.63
2023-03-18T15:13:46.373Z,9.70
2023-03-18T15:16:15.821Z,8.20
2023-03-18T15:18:44.540Z,10.90
2023-03-18T15:21:16.542Z,7.20
2023-03-18T15:23:48.590Z,3.80
2023-03-18T15:26:21.453Z,4.90
2023-03-18T15:28:50.363Z,5.30
2023-03-18T15:31:26.531Z,5.83
2023-03-18T15:34:07.013Z,6.80
2023-03-18T15:36:42.511Z,5.97
2023-03-18T15:39:21.544Z,5.27
2023-03-18T15:41:54.910Z,5.13
2023-03-18T15:44:28.630Z,5.77
2023-03-18T15:47:04.098Z,5.80
2023-03-18T15:49:33.204Z,5.90
2023-03-18T15:52:03.539Z,5.67
2023-03-18T15:54:40.943Z,6.40
2023-03-18T15:57:14.987Z,6.30
2023-03-18T15:59:45.566Z,6.17
2023-03-18T16:02:18.495Z,10.20
2023-03-18T16:04:48.310Z,7.33
2023-03-18T16:07:19.503Z,6.63
2023-03-18T16:09:47.462Z,7.83
2023-03-18T16:12:20.487Z,6.03
2023-03-18T16:14:52.573Z,6.27
2023-03-18T16:17:22.261Z,6.70
2023-03-18T16:19:54.683Z,6.00
2023-03-18T16:22:23.047Z,6.83
2023-03-18T16:24:51.752Z,7.13
2023-03-18T16:27:29.999Z,6.50
2023-03-18T16:29:58.862Z,8.80
2023-03-18T16:32:27.591Z,8.07
2023-03-18T16:34:55.968Z,8.43
2023-03-18T16:37:26.596Z,8.57
2023-03-18T16:39:55.965Z,8.53
2023-03-18T16:42:27.142Z,10.17
2023-03-18T16:44:55.874Z,9.17
2023-03-18T16:47:27.178Z,9.97
2023-03-18T16:49:56.401Z,8.60
2023-03-18T16:52:25.291Z,8.87
2023-03-18T16:54:53.389Z,8.20
2023-03-18T16:57:23.634Z,9.73
2023-03-18T16:59:56.577Z,8.80
2023-03-18T17:02:33.396Z,12.30
2023-03-18T17:05:02.450Z,10.90
2023-03-18T17:07:30.458Z,12.40
2023-03-18T17:09:58.937Z,13.03
2023-03-18T17:12:27.252Z,10.63
2023-03-18T17:14:58.091Z,11.00
2023-03-18T17:17:29.772Z,11.43
2023-03-18T17:19:59.681Z,11.10
2023-03-18T17:22:29.532Z,11.10
2023-03-18T17:24:58.333Z,9.90
2023-03-18T17:27:31.646Z,9.77
2023-03-18T17:30:01.465Z,10.30
2023-03-18T17:32:29.559Z,9.80
2023-03-18T17:34:57.779Z,9.77
2023-03-18T17:37:26.119Z,10.10
2023-03-18T17:39:54.001Z,9.43
2023-03-18T17:42:29.575Z,9.80
2023-03-18T17:45:00.788Z,9.63
2023-03-18T17:47:30.468Z,9.87
2023-03-18T17:49:58.551Z,10.20
2023-03-18T17:52:27.210Z,11.87
2023-03-18T17:54:55.729Z,11.60
2023-03-18T17:57:24.290Z,11.53
2023-03-18T17:59:52.608Z,18.00
2023-03-18T18:02:21.276Z,17.50
2023-03-18T18:04:51.591Z,12.87
2023-03-18T18:07:21.808Z,13.20
2023-03-18T18:09:50.305Z,12.27
2023-03-18T18:12:23.014Z,11.30
2023-03-18T18:14:51.100Z,10.67
2023-03-18T18:17:19.325Z,11.10
2023-03-18T18:19:47.582Z,10.80
2023-03-18T18:22:19.009Z,11.20
2023-03-18T18:24:47.374Z,11.10
2023-03-18T18:27:16.781Z,10.63
2023-03-18T18:29:45.887Z,10.67
2023-03-18T18:32:15.602Z,11.50
2023-03-18T18:34:43.609Z,10.13
2023-03-18T18:37:11.969Z,10.10
2023-03-18T18:39:42.552Z,10.57
2023-03-18T18:42:12.505Z,11.03
2023-03-18T18:44:40.518Z,9.20
2023-03-18T18:47:18.877Z,10.53
2023-03-18T18:49:47.527Z,11.20
2023-03-18T18:52:15.574Z,14.07
2023-03-18T18:54:45.019Z,12.63
2023-03-18T18:57:24.847Z,11.50
2023-03-18T18:59:52.924Z,12.23
2023-03-18T19:02:30.445Z,11.50
2023-03-18T19:04:59.159Z,12.70
2023-03-18T19:07:27.659Z,12.53
2023-03-18T19:09:57.040Z,11.93
2023-03-18T19:12:24.942Z,11.53
2023-03-18T19:14:53.027Z,11.83
2023-03-18T19:17:23.481Z,12.40
2023-03-18T19:19:53.298Z,11.77
2023-03-18T19:22:22.650Z,11.50
2023-03-18T19:24:51.312Z,11.50
2023-03-18T19:27:24.607Z,11.33
2023-03-18T19:29:54.294Z,11.43
2023-03-18T19:32:23.446Z,11.30
2023-03-18T19:34:52.462Z,11.77
2023-03-18T19:37:26.174Z,12.63
2023-03-18T19:39:55.517Z,12.47
2023-03-18T19:42:24.815Z,13.43
2023-03-18T19:44:53.021Z,12.03
2023-03-18T19:47:24.139Z,11.57
2023-03-18T19:49:52.508Z,10.70
2023-03-18T19:52:22.021Z,9.20
2023-03-18T19:54:50.723Z,8.20
2023-03-18T19:57:20.953Z,9.27
2023-03-18T19:59:51.328Z,9.90
2023-03-18T20:02:22.948Z,9.03
2023-03-18T20:04:51.697Z,9.40
2023-03-18T20:07:21.206Z,9.10
2023-03-18T20:09:49.592Z,9.73
2023-03-18T20:12:24.769Z,10.90
2023-03-18T20:14:54.351Z,10.30
2023-03-18T20:17:31.721Z,9.90
2023-03-18T20:20:00.160Z,10.90
2023-03-18T20:22:32.204Z,10.90
2023-03-18T20:25:00.783Z,9.80
2023-03-18T20:27:29.820Z,10.40
2023-03-18T20:30:00.199Z,10.93
2023-03-18T20:32:28.242Z,12.20
2023-03-18T20:34:56.550Z,12.00
2023-03-18T20:37:30.986Z,12.23
2023-03-18T20:39:59.032Z,12.50
2023-03-18T20:42:27.265Z,13.10
2023-03-18T20:44:55.225Z,13.57
2023-03-18T20:47:24.582Z,12.40
2023-03-18T20:49:54.804Z,12.90
2023-03-18T20:52:26.633Z,13.10
2023-03-18T20:54:56.504Z,12.80
2023-03-18T20:57:24.653Z,14.20
2023-03-18T20:59:52.726Z,13.83
2023-03-18T21:02:31.852Z,13.20
2023-03-18T21:05:01.727Z,13.00
2023-03-18T21:07:30.707Z,11.80
2023-03-18T21:09:58.780Z,12.23
2023-03-18T21:12:26.742Z,12.50
2023-03-18T21:14:54.715Z,13.47
2023-03-18T21:17:24.389Z,11.90
2023-03-18T21:20:00.766Z,12.00
2023-03-18T21:22:34.167Z,11.00
2023-03-18T21:25:02.209Z,11.83
2023-03-18T21:27:30.331Z,11.03
2023-03-18T21:29:58.727Z,11.53
2023-03-18T21:32:29.855Z,10.93
2023-03-18T21:34:59.538Z,10.60
2023-03-18T21:37:28.210Z,10.90
2023-03-18T21:39:56.283Z,11.23
2023-03-18T21:42:26.445Z,12.13
2023-03-18T21:44:55.914Z,12.40
2023-03-18T21:47:26.074Z,12.90
2023-03-18T21:49:54.010Z,12.30
2023-03-18T21:52:30.232Z,11.57
2023-03-18T21:54:59.135Z,11.90
2023-03-18T21:57:28.510Z,12.37
2023-03-18T21:59:56.872Z,12.20
2023-03-18T22:02:29.204Z,11.67
2023-03-18T22:04:58.756Z,12.53
2023-03-18T22:07:29.782Z,12.40
2023-03-18T22:09:58.536Z,11.47
2023-03-18T22:12:28.682Z,11.40
2023-03-18T22:14:57.377Z,11.13
2023-03-18T22:17:27.104Z,11.00
2023-03-18T22:19:56.091Z,11.50
2023-03-18T22:22:26.225Z,10.70
2023-03-18T22:24:55.653Z,10.57
2023-03-18T22:27:25.811Z,10.67
2023-03-18T22:29:55.610Z,10.77
2023-03-18T22:32:40.213Z,10.97
2023-03-18T22:35:14.879Z,11.43
2023-03-18T22:37:43.065Z,12.00
2023-03-18T22:40:17.974Z,11.17
2023-03-18T22:42:47.689Z,10.73
2023-03-18T22:45:24.894Z,11.93
2023-03-18T22:47:54.818Z,10.83
2023-03-18T22:50:24.614Z,12.70
2023-03-18T22:52:57.558Z,11.37
2023-03-18T22:55:29.399Z,11.80
2023-03-18T22:57:57.420Z,12.53
2023-03-18T23:00:34.008Z,12.30
2023-03-18T23:03:02.588Z,12.10
2023-03-18T23:05:30.726Z,12.63
2023-03-18T23:07:58.708Z,11.30
2023-03-18T23:10:28.548Z,10.83
2023-03-18T23:12:56.666Z,11.93
2023-03-18T23:15:24.709Z,12.30
2023-03-18T23:17:52.831Z,10.90
2023-03-18T23:20:20.863Z,11.50
2023-03-18T23:22:48.861Z,12.50
2023-03-18T23:25:18.528Z,12.37
2023-03-18T23:27:47.907Z,11.10
2023-03-18T23:30:16.129Z,11.37
2023-03-18T23:32:44.159Z,11.73
2023-03-18T23:35:12.509Z,11.77
2023-03-18T23:37:40.727Z,11.07
2023-03-18T23:40:09.962Z,11.70
2023-03-18T23:42:37.874Z,11.20
2023-03-18T23:45:09.166Z,12.40
2023-03-18T23:47:37.267Z,12.07
2023-03-18T23:50:05.608Z,12.43
2023-03-18T23:52:34.141Z,12.55
2023-03-18T23:55:02.260Z,13.45
2023-03-18T23:57:30.456Z,12.57
2023-03-18T23:59:58.339Z,12.27
